In Rescue
 
Open Full Screen Window  High Contrast Mode
Wind Gusting 00 knots
05
May 13, 2021 12:11 PM EDT
Weather Information
Wind Direction
  270 °
Wind Speed
  05 kt (6 mph)
Wind Gust
  00 kt (0 mph)
Altimeter
30.41 in
Visibility
10 SM
Temperature
17° C
63° F
Dewpoint
-02° C
28° F
Humidity
27%
1hr Rain Fall
00.00 in.
24hr Rain Fall
00.00 in.
Sky Condition
Clear
VFR

METAR KIRS 131611Z AUTO 27005KT 10SM CLR 17/M02 A3041 RMK AO2 T01651024

FAA Disclaimer: The data displayed is for advisory purposes only and is not to be used for flight planning or operations.